LA MATA - P.N. Sant Llorenç del Munt i l'Obac





Hora UTC 05:50
Temperatura 4.3 ºC
Humedad 95.3 %
Presión 1014.7 hPa
Pluja 0.0 mm
Velocidad viento 3.6 km/h
Dirección viento W
Radiación solar 0.1 W/m²
Fuel 130.8 %

Datos diarios 2022-12-01



Hora UTC (invierno +1h; verano +2h)
Temperatura (ºC) Humedad (%) Presión (hPa) Velocidad viento (km/h) Precipitación (mm) Fuel (%) Radiación solar (W/m²)
Hora UTC Aire Humedad Presión Vel. Dir. Vel. Max Dir. Intent. máx 5 min. Fuel Rad. Sol.
00:05 4.7 95.5 1015.6 2.5 SSW 2.5 SSW 0.0 105.2 0.1
00:10 4.8 95.5 1015.6 2.5 SSW 4.2 SSW 0.0 105.5 0.1
00:15 4.8 95.6 1015.5 2.5 SSW 4.2 SSW 0.0 106.3 0.1
00:20 4.8 95.5 1015.5 0.1 SSW 1.4 SSW 0.0 106.7 0.1
00:25 4.8 95.5 1015.4 1.5 NW 5.6 NNW 0.0 106.9 0.1
00:30 4.7 95.4 1015.3 4.9 NW 6.0 NW 0.0 107.5 0.1
00:35 4.7 95.4 1015.3 2.7 NW 4.2 NW 0.0 108.0 0.1
00:40 4.7 95.5 1015.3 3.2 WNW 4.6 WNW 0.0 108.5 0.1
00:45 4.7 95.5 1015.3 3.9 WNW 4.9 WNW 0.0 109.2 0.2
00:50 4.7 95.5 1015.3 2.0 WNW 4.6 WNW 0.0 109.8 0.1
00:55 4.7 95.5 1015.3 0.5 WNW 2.1 NW 0.0 110.1 0.1
01:00 4.6 95.3 1015.3 1.3 WSW 2.8 W 0.0 110.2 0.1
01:05 4.7 95.6 1015.3 2.2 WNW 3.2 WNW 0.0 110.5 0.1
01:10 4.7 95.4 1015.2 2.8 WNW 4.6 WNW 0.0 110.6 0.1
01:15 4.7 95.4 1015.2 2.7 NW 4.6 NNW 0.0 111.2 0.1
01:20 4.6 95.4 1015.2 2.3 W 4.2 W 0.0 111.5 0.1
01:25 4.6 95.5 1015.2 4.2 SW 5.3 WSW 0.0 112.0 0.1
01:30 4.6 95.4 1015.2 2.7 WSW 4.2 W 0.0 112.8 0.1
01:35 4.6 95.4 1015.2 1.9 SW 3.2 SSW 0.0 113.4 0.1
01:40 4.6 95.5 1015.2 1.8 SW 2.8 SW 0.0 114.1 0.1
01:45 4.6 95.6 1015.2 2.6 W 4.2 WNW 0.0 115.1 0.1
01:50 4.5 95.5 1015.2 4.2 NW 6.4 NW 0.0 116.0 0.1
01:55 4.5 95.5 1015.3 4.3 NW 5.6 NW 0.0 117.0 0.1
02:00 4.6 95.4 1015.2 5.0 NNW 6.0 NNW 0.0 117.5 0.1
02:05 4.6 95.4 1015.2 4.5 NW 6.0 NNW 0.0 117.8 0.1
02:10 4.6 95.4 1015.2 3.9 NW 6.0 NW 0.0 118.1 0.1
02:15 4.7 95.4 1015.1 3.5 NNW 4.9 N 0.0 118.3 0.1
02:20 4.7 95.4 1015.1 4.5 N 6.7 N 0.0 119.1 0.1
02:25 4.6 95.3 1015.0 4.3 NNW 5.3 NNW 0.0 119.5 0.1
02:30 4.6 95.3 1014.9 5.3 N 9.2 N 0.0 119.9 0.1
02:35 4.6 95.3 1014.9 4.6 N 8.5 N 0.0 120.5 0.1
02:40 4.5 95.4 1015.0 3.5 NNW 7.1 NNW 0.0 120.7 0.1
02:45 4.5 95.3 1014.9 3.3 NNW 6.4 N 0.0 120.8 0.1
02:50 4.3 95.1 1014.9 0.3 W 1.8 W 0.0 120.8 0.1
02:55 4.2 95.2 1014.9 4.3 NW 6.7 NNW 0.0 121.5 0.1
03:00 4.3 95.5 1014.8 5.9 NW 8.1 NNW 0.0 122.6 0.1
03:05 4.3 95.5 1014.8 6.0 NW 8.1 NW 0.0 123.5 0.1
03:10 4.3 95.5 1014.8 6.3 NNW 7.8 NNW 0.0 124.3 0.1
03:15 4.2 95.5 1014.8 6.1 NNW 7.8 NNW 0.0 124.9 0.1
03:20 4.2 95.5 1014.8 7.1 N 8.5 SSW 0.0 125.7 0.1
03:25 4.2 95.5 1014.8 5.6 N 8.1 NNE 0.0 126.5 0.1
03:30 4.1 95.5 1014.8 3.4 NNW 6.7 N 0.0 127.1 0.1
03:35 4.0 95.4 1014.8 3.0 NE 6.4 NE 0.0 127.4 0.1
03:40 3.9 95.5 1014.8 4.7 NE 6.4 ENE 0.0 128.3 0.2
03:45 4.0 95.7 1014.8 3.9 NE 5.6 ENE 0.0 129.2 0.1
03:50 4.1 95.7 1014.8 3.8 NE 4.6 NE 0.0 130.0 0.1
03:55 4.1 95.7 1014.7 3.4 NE 4.9 NNE 0.0 130.8 0.1
04:00 4.1 95.7 1014.7 3.4 NE 4.2 NE 0.0 131.2 0.1
04:05 4.1 95.6 1014.7 2.2 NE 3.5 ENE 0.0 131.4 0.1
04:10 4.2 95.7 1014.7 0.5 NE 2.1 NE 0.0 131.7 0.1
04:15 4.2 95.7 1014.7 0.2 SSE 1.8 SSE 0.0 132.0 0.1
04:20 4.2 95.7 1014.7 0.9 SSE 2.8 S 0.0 132.2 0.1
04:25 4.2 95.8 1014.7 0.5 SE 2.5 ESE 0.0 132.3 0.1
04:30 4.3 95.7 1014.6 2.5 S 3.9 SSW 0.0 132.3 0.1
04:35 4.3 95.8 1014.6 1.0 SW 2.5 SSW 0.0 132.4 0.1
04:40 4.3 95.8 1014.6 0.0 NNE 0.0 WSW 0.0 132.4 0.1
04:45 4.3 95.7 1014.6 2.0 NW 3.9 NNW 0.0 132.4 0.1
04:50 4.3 95.7 1014.6 3.9 NNW 4.9 NNW 0.0 132.3 0.1
04:55 4.3 95.6 1014.6 3.8 NNW 4.9 N 0.0 132.1 0.1
05:00 4.3 95.6 1014.6 4.1 NNW 4.9 NNW 0.0 132.0 0.1
05:05 4.3 95.6 1014.6 4.0 NNW 5.3 NNW 0.0 131.9 0.1
05:10 4.3 95.6 1014.6 3.7 NNW 4.9 NNW 0.0 131.8 0.1
05:15 4.3 95.6 1014.6 2.7 NW 4.2 WNW 0.0 131.7 0.1
05:20 4.3 95.6 1014.6 2.5 W 5.3 W 0.0 131.6 0.2
05:25 4.4 95.6 1014.6 2.1 W 3.5 W 0.0 131.5 0.1
05:30 4.4 95.5 1014.6 1.6 W 2.8 WNW 0.0 131.3 0.1
05:35 4.4 95.5 1014.6 1.1 W 2.1 WNW 0.0 131.2 0.1
05:40 4.4 95.5 1014.6 2.1 W 3.5 W 0.0 131.2 0.1
05:45 4.4 95.4 1014.6 3.1 W 4.9 WNW 0.0 131.0 0.1
05:50 4.3 95.3 1014.7 3.6 W 6.7 W 0.0 130.8 0.1
Máxima 4.9 95.8 1015.6 7.1 N 9.2 N 0.0 132.4 0.2
Mínima 3.8 95.1 1014.6 105.2
Total 0.0